Time;durP1;ratioP1;P1;durP2;ratioP2;P2;SDS_P1;SDS_P2;PMS_P1;PMS_P2;Temp;Humidity;BMP_temperature;BMP_pressure;BME280_temperature;BME280_humidity;BME280_pressure;Samples;Min_cycle;Max_cycle;Signal;HPM_P1;HPM_P2
2022/04/25 00:02:05;;;;;;;15.27;8.50;;;9.70;99.90;;;;;;5112348;28;20096;-70
2022/04/25 00:04:31;;;;;;;13.07;8.38;;;9.70;99.90;;;;;;5098972;28;20039;-69
2022/04/25 00:06:57;;;;;;;15.68;7.88;;;9.70;99.90;;;;;;5091266;28;20040;-69
2022/04/25 00:09:22;;;;;;;13.00;7.93;;;9.70;99.90;;;;;;5088403;28;20507;-70
2022/04/25 00:11:48;;;;;;;17.80;8.07;;;10.70;99.90;;;;;;5090250;28;20136;-70
2022/04/25 00:14:14;;;;;;;15.93;8.73;;;10.10;99.90;;;;;;5094376;28;20050;-70
2022/04/25 00:16:40;;;;;;;13.63;8.32;;;9.70;99.90;;;;;;5100692;28;20090;-70
2022/04/25 00:19:06;;;;;;;16.50;8.70;;;9.70;99.90;;;;;;5111138;28;20483;-69
2022/04/25 00:21:33;;;;;;;13.95;7.85;;;9.70;99.90;;;;;;5109537;28;20039;-70
2022/04/25 00:23:58;;;;;;;18.25;8.60;;;10.70;99.90;;;;;;5110548;28;20054;-70
2022/04/25 00:26:24;;;;;;;13.18;9.02;;;9.60;99.90;;;;;;5093298;28;20051;-70
2022/04/25 00:28:50;;;;;;;14.38;8.77;;;9.60;99.90;;;;;;5111221;28;20058;-69
2022/04/25 00:31:15;;;;;;;15.18;8.85;;;9.70;99.90;;;;;;5111333;28;20093;-69
2022/04/25 00:33:41;;;;;;;16.17;8.20;;;9.70;99.90;;;;;;5111323;28;20150;-70
2022/04/25 00:36:07;;;;;;;15.07;9.77;;;9.70;99.90;;;;;;5093444;28;20055;-70
2022/04/25 00:38:33;;;;;;;14.60;8.55;;;9.70;99.90;;;;;;5111763;28;20046;-69
2022/04/25 00:40:58;;;;;;;12.52;8.60;;;9.70;99.90;;;;;;5110964;28;20491;-70
2022/04/25 00:43:24;;;;;;;17.15;9.30;;;9.60;99.90;;;;;;5111220;28;20044;-70
2022/04/25 00:45:50;;;;;;;18.20;10.30;;;9.70;99.90;;;;;;5110833;28;20043;-70
2022/04/25 00:48:16;;;;;;;14.90;9.60;;;9.70;99.90;;;;;;5092055;28;20036;-69
2022/04/25 00:50:41;;;;;;;14.88;9.20;;;9.70;99.90;;;;;;5080040;28;20476;-70
2022/04/25 00:53:07;;;;;;;15.73;9.52;;;9.70;99.90;;;;;;5087700;28;20060;-69
2022/04/25 00:55:34;;;;;;;15.68;9.38;;;9.70;99.90;;;;;;5091978;28;20048;-69
2022/04/25 00:58:00;;;;;;;13.85;8.80;;;9.70;99.90;;;;;;5099887;28;20552;-70
2022/04/25 01:00:26;;;;;;;14.70;9.77;;;9.70;99.90;;;;;;5092524;28;20032;-70
2022/04/25 01:02:52;;;;;;;19.00;10.35;;;9.70;99.90;;;;;;5092145;28;20046;-70
2022/04/25 01:05:18;;;;;;;16.35;9.40;;;9.60;99.90;;;;;;5110816;28;20039;-70
2022/04/25 01:07:44;;;;;;;15.27;9.57;;;9.60;99.90;;;;;;5108434;28;20050;-69
2022/04/25 01:10:10;;;;;;;13.63;9.27;;;9.60;99.90;;;;;;5111202;28;20080;-70
2022/04/25 01:12:37;;;;;;;16.45;9.20;;;9.60;99.90;;;;;;5090646;28;20043;-70
2022/04/25 01:15:11;;;;;;;15.82;9.27;;;9.60;99.90;;;;;;5091472;28;20039;-70
2022/04/25 01:17:38;;;;;;;14.73;9.10;;;9.60;99.90;;;;;;5082417;28;20040;-70
2022/04/25 01:20:07;;;;;;;15.57;9.15;;;9.50;99.90;;;;;;5113874;28;20156;-70
2022/04/25 01:22:44;;;;;;;15.13;9.80;;;9.50;99.90;;;;;;5109598;28;20440;-70
2022/04/25 01:27:55;;;;;;;14.15;9.10;;;9.50;99.90;;;;;;5108860;28;20480;-70
2022/04/25 01:30:21;;;;;;;15.73;9.85;;;9.40;99.90;;;;;;5092358;28;20047;-70
2022/04/25 01:32:46;;;;;;;14.27;9.75;;;9.40;99.90;;;;;;5091421;28;20494;-70
2022/04/25 01:35:12;;;;;;;19.98;10.55;;;9.30;99.90;;;;;;5101999;28;20467;-70
2022/04/25 01:37:38;;;;;;;20.40;9.77;;;9.30;99.90;;;;;;5088481;28;20097;-71
2022/04/25 01:40:04;;;;;;;17.83;11.10;;;9.20;99.90;;;;;;5071852;28;20478;-69
2022/04/25 01:42:30;;;;;;;15.88;9.63;;;9.20;99.90;;;;;;5091296;28;20122;-69
2022/04/25 01:44:56;;;;;;;18.58;10.32;;;9.20;99.90;;;;;;5109970;28;20142;-70
2022/04/25 01:47:22;;;;;;;16.55;9.93;;;9.10;99.90;;;;;;5111822;28;20036;-70
2022/04/25 01:49:47;;;;;;;16.83;10.07;;;9.10;99.90;;;;;;5091299;28;20142;-69
2022/04/25 01:52:19;;;;;;;16.15;10.25;;;9.10;99.90;;;;;;5108573;28;20035;-69
2022/04/25 01:54:45;;;;;;;16.27;10.23;;;9.10;99.90;;;;;;5109885;28;20495;-70
2022/04/25 01:57:11;;;;;;;17.13;10.38;;;9.00;99.90;;;;;;5090747;28;20048;-70
2022/04/25 01:59:36;;;;;;;14.90;10.10;;;9.00;99.90;;;;;;5095561;28;20079;-70
2022/04/25 02:02:03;;;;;;;16.63;10.40;;;9.00;99.90;;;;;;5103686;28;20116;-70
2022/04/25 02:04:29;;;;;;;17.38;10.63;;;9.10;99.90;;;;;;5109434;28;20055;-70
2022/04/25 02:06:56;;;;;;;17.10;10.98;;;9.00;99.90;;;;;;5107905;28;20044;-70
2022/04/25 02:09:22;;;;;;;17.42;10.20;;;9.10;99.90;;;;;;5107119;28;20106;-70
2022/04/25 02:11:48;;;;;;;17.95;10.43;;;9.40;99.90;;;;;;5092832;28;20145;-70
2022/04/25 02:14:13;;;;;;;17.40;10.15;;;9.10;99.90;;;;;;5109715;28;20119;-70
2022/04/25 02:16:39;;;;;;;16.65;10.18;;;9.10;99.90;;;;;;5108096;28;20154;-70
2022/04/25 02:19:05;;;;;;;16.70;9.90;;;9.20;99.90;;;;;;5109779;28;20044;-70
2022/04/25 02:21:31;;;;;;;15.82;9.45;;;10.00;99.90;;;;;;5107978;28;20069;-70
2022/04/25 02:23:57;;;;;;;15.23;9.18;;;10.10;99.90;;;;;;5108822;28;20480;-70
2022/04/25 02:26:23;;;;;;;15.98;9.10;;;9.30;99.90;;;;;;5110689;28;20051;-70
2022/04/25 02:28:48;;;;;;;17.40;9.88;;;9.30;99.90;;;;;;5111951;28;20089;-71
2022/04/25 02:31:15;;;;;;;17.33;9.25;;;9.30;99.90;;;;;;5108555;28;20489;-71
2022/04/25 02:33:43;;;;;;;17.10;9.32;;;9.40;99.90;;;;;;5108279;28;20032;-70
2022/04/25 02:36:09;;;;;;;14.13;8.60;;;9.40;99.90;;;;;;5109125;28;20418;-70
2022/04/25 02:38:36;;;;;;;13.93;8.63;;;9.30;99.90;;;;;;5107395;28;20057;-69
2022/04/25 02:41:05;;;;;;;14.18;9.02;;;9.30;99.90;;;;;;5107772;28;20035;-70
2022/04/25 02:43:41;;;;;;;13.20;8.25;;;9.30;99.90;;;;;;5090364;28;20104;-70
2022/04/25 02:46:11;;;;;;;;;;;9.30;99.90;;;;;;5111287;28;20036;-70
2022/04/25 02:48:37;;;;;;;11.48;7.50;;;9.80;99.90;;;;;;5090537;28;20395;-69
2022/04/25 02:51:06;;;;;;;14.15;7.75;;;9.40;99.90;;;;;;5070570;28;20119;-70
2022/04/25 02:53:33;;;;;;;15.05;7.78;;;10.30;99.90;;;;;;5088931;28;20119;-69
2022/04/25 02:55:59;;;;;;;13.73;7.57;;;9.40;99.90;;;;;;5074410;28;20143;-70
2022/04/25 02:58:26;;;;;;;13.43;7.97;;;9.40;99.90;;;;;;5108908;28;20074;-70
2022/04/25 03:00:52;;;;;;;13.32;8.00;;;9.30;99.90;;;;;;5107869;28;20044;-70
2022/04/25 03:03:19;;;;;;;12.48;7.65;;;9.30;99.90;;;;;;5104970;28;20036;-70
2022/04/25 03:05:47;;;;;;;13.35;7.85;;;9.30;99.90;;;;;;5053255;28;20492;-70
2022/04/25 03:08:23;;;;;;;12.02;7.45;;;9.30;99.90;;;;;;5099495;28;20036;-70
2022/04/25 03:10:51;;;;;;;;;;;9.30;99.90;;;;;;5109375;28;20039;-70
2022/04/25 03:13:17;;;;;;;12.93;7.90;;;9.30;99.90;;;;;;5107613;28;20006;-70
2022/04/25 03:15:44;;;;;;;12.13;7.35;;;9.30;99.90;;;;;;5108359;28;20118;-70
2022/04/25 03:18:12;;;;;;;14.55;8.07;;;9.30;99.90;;;;;;5107235;28;20088;-70
2022/04/25 03:20:44;;;;;;;13.93;7.72;;;10.00;99.90;;;;;;5089701;28;20541;-70
2022/04/25 03:23:10;;;;;;;13.73;7.38;;;9.30;99.90;;;;;;5106775;28;20139;-70
2022/04/25 03:25:36;;;;;;;12.18;7.60;;;9.30;99.90;;;;;;5108990;28;20097;-70
2022/04/25 03:28:02;;;;;;;11.93;7.13;;;9.30;99.90;;;;;;5089126;28;20448;-71
2022/04/25 03:30:28;;;;;;;14.13;7.55;;;9.30;99.90;;;;;;5109204;28;20047;-70
2022/04/25 03:32:56;;;;;;;13.77;7.40;;;9.40;99.90;;;;;;5108880;28;20082;-70
2022/04/25 03:35:23;;;;;;;12.75;7.65;;;9.40;99.90;;;;;;5079482;28;20063;-70
2022/04/25 03:37:50;;;;;;;14.10;7.45;;;9.40;99.90;;;;;;5069034;28;20052;-70
2022/04/25 03:40:16;;;;;;;16.02;7.85;;;9.40;99.90;;;;;;5099875;28;20043;-70
2022/04/25 03:42:44;;;;;;;15.77;8.50;;;9.30;99.90;;;;;;5105977;28;20047;-70
2022/04/25 03:45:11;;;;;;;12.15;8.32;;;9.40;99.90;;;;;;5106888;28;20161;-70
2022/04/25 03:47:37;;;;;;;13.07;7.85;;;9.30;99.90;;;;;;5106903;28;20043;-70
2022/04/25 03:50:08;;;;;;;14.10;8.23;;;9.30;99.90;;;;;;5073157;28;20043;-69
2022/04/25 03:52:38;;;;;;;12.85;7.53;;;9.20;99.90;;;;;;5106971;28;20040;-71
2022/04/25 03:57:53;;;;;;;11.70;7.18;;;9.20;99.90;;;;;;5107339;28;20048;-69
2022/04/25 04:00:19;;;;;;;11.13;7.55;;;10.30;99.90;;;;;;5109673;28;20062;-70
2022/04/25 04:02:45;;;;;;;14.80;7.60;;;9.10;99.90;;;;;;5109290;28;20040;-69
2022/04/25 04:05:12;;;;;;;12.70;7.78;;;9.10;99.90;;;;;;5090862;28;20189;-70
2022/04/25 04:07:38;;;;;;;12.40;7.20;;;9.10;99.90;;;;;;5106715;28;20510;-70
2022/04/25 04:10:04;;;;;;;14.57;7.93;;;9.70;99.90;;;;;;5101724;28;20127;-70
2022/04/25 04:12:31;;;;;;;13.82;7.65;;;9.10;99.90;;;;;;5084811;28;20180;-70
2022/04/25 04:14:58;;;;;;;12.23;7.38;;;9.10;99.90;;;;;;5107889;28;20445;-70
2022/04/25 04:17:27;;;;;;;10.88;7.55;;;9.10;99.90;;;;;;5107954;28;20048;-70
2022/04/25 04:19:55;;;;;;;12.50;7.22;;;9.10;99.90;;;;;;5107906;28;20484;-71
2022/04/25 04:22:22;;;;;;;11.25;7.22;;;9.10;99.90;;;;;;5107182;28;20040;-70
2022/04/25 04:24:48;;;;;;;11.95;7.22;;;9.10;99.90;;;;;;5107491;28;20032;-71
2022/04/25 04:27:14;;;;;;;12.23;7.78;;;9.00;99.90;;;;;;5107981;28;20066;-70
2022/04/25 04:29:41;;;;;;;13.43;7.78;;;9.10;99.90;;;;;;5113415;28;20048;-70
2022/04/25 04:32:07;;;;;;;13.30;7.22;;;9.00;99.90;;;;;;5111596;28;20138;-70
2022/04/25 04:34:36;;;;;;;13.15;7.63;;;9.00;99.90;;;;;;5112644;28;20284;-70
2022/04/25 04:37:03;;;;;;;12.35;7.38;;;9.00;99.90;;;;;;5111956;28;20183;-69
2022/04/25 04:39:29;;;;;;;11.85;7.60;;;9.20;99.90;;;;;;5112174;28;20100;-69
2022/04/25 04:41:55;;;;;;;13.48;7.07;;;9.00;99.90;;;;;;5092740;28;20047;-70
2022/04/25 04:44:20;;;;;;;13.52;7.90;;;9.00;99.90;;;;;;5111927;28;20102;-69
2022/04/25 04:46:47;;;;;;;12.52;8.23;;;9.10;99.90;;;;;;5111836;28;20048;-70
2022/04/25 04:49:13;;;;;;;13.00;7.82;;;9.10;99.90;;;;;;5093039;28;20042;-70
2022/04/25 04:51:39;;;;;;;11.57;7.93;;;9.00;99.90;;;;;;5089260;28;20189;-70
2022/04/25 04:54:04;;;;;;;15.77;8.50;;;9.00;99.90;;;;;;5087680;28;20131;-70
2022/04/25 04:56:31;;;;;;;14.50;8.13;;;9.00;99.90;;;;;;5093048;28;20399;-70
2022/04/25 04:58:56;;;;;;;15.80;7.75;;;9.00;99.90;;;;;;5093428;28;20634;-70
2022/04/25 05:01:22;;;;;;;15.40;7.95;;;9.00;99.90;;;;;;5112921;28;20068;-70
2022/04/25 05:03:48;;;;;;;13.40;8.10;;;9.00;99.90;;;;;;5112459;28;20055;-70
2022/04/25 05:06:14;;;;;;;11.98;8.07;;;9.00;99.90;;;;;;5098247;28;20170;-70
2022/04/25 05:08:39;;;;;;;12.38;8.27;;;9.00;99.90;;;;;;5092102;28;20039;-70
2022/04/25 05:11:07;;;;;;;14.07;7.75;;;9.00;99.90;;;;;;5093995;28;20114;-69
2022/04/25 05:13:33;;;;;;;13.57;8.25;;;9.00;99.90;;;;;;5111998;28;20036;-69
2022/04/25 05:15:59;;;;;;;15.00;8.10;;;9.00;99.90;;;;;;5111205;28;20048;-69
2022/04/25 05:18:24;;;;;;;15.43;8.88;;;9.00;99.90;;;;;;5110792;28;20044;-70
2022/04/25 05:20:50;;;;;;;13.30;8.20;;;9.00;99.90;;;;;;5109782;28;20132;-70
2022/04/25 05:23:16;;;;;;;17.17;8.45;;;9.00;99.90;;;;;;5074195;28;20059;-70
2022/04/25 05:25:42;;;;;;;15.52;8.52;;;9.00;99.90;;;;;;5110690;28;20036;-70
2022/04/25 05:28:08;;;;;;;11.40;7.95;;;9.10;99.90;;;;;;5110226;28;20408;-70
2022/04/25 05:30:33;;;;;;;14.00;7.75;;;9.10;99.90;;;;;;5110649;28;20075;-70
2022/04/25 05:33:02;;;;;;;12.00;7.40;;;9.90;99.90;;;;;;5091746;28;20043;-69
2022/04/25 05:35:31;;;;;;;16.98;8.02;;;9.10;99.90;;;;;;5091279;28;20138;-69
2022/04/25 05:37:57;;;;;;;15.43;7.47;;;9.10;99.90;;;;;;5109123;28;20066;-70
2022/04/25 05:40:25;;;;;;;11.00;7.57;;;9.10;99.90;;;;;;5100490;28;20036;-70
2022/04/25 05:42:51;;;;;;;13.32;7.80;;;9.60;99.90;;;;;;5109859;28;20126;-70
2022/04/25 05:45:20;;;;;;;12.30;8.25;;;9.00;99.90;;;;;;5092056;28;20047;-70
2022/04/25 05:47:46;;;;;;;13.45;8.57;;;9.10;99.90;;;;;;5107741;28;20043;-70
2022/04/25 05:52:58;;;;;;;15.25;8.57;;;9.10;99.90;;;;;;5108815;28;20044;-70
2022/04/25 05:55:24;;;;;;;13.15;9.00;;;9.10;99.90;;;;;;5111330;28;20064;-70
2022/04/25 05:57:52;;;;;;;14.38;9.48;;;10.00;99.90;;;;;;5091774;28;20035;-70
2022/04/25 06:00:19;;;;;;;13.82;8.65;;;9.10;99.90;;;;;;5091599;28;20039;-70
2022/04/25 06:02:45;;;;;;;15.30;8.80;;;9.10;99.90;;;;;;5092758;28;20039;-70
2022/04/25 06:05:11;;;;;;;14.25;8.85;;;9.30;99.90;;;;;;5106191;28;20398;-70
2022/04/25 06:07:41;;;;;;;14.18;8.85;;;9.30;99.90;;;;;;5108105;28;20079;-69
2022/04/25 06:10:07;;;;;;;13.98;8.52;;;9.30;99.90;;;;;;5109850;28;20395;-70
2022/04/25 06:12:32;;;;;;;13.70;8.52;;;9.20;99.90;;;;;;5109623;28;20507;-70
2022/04/25 06:15:02;;;;;;;11.77;8.13;;;9.20;99.90;;;;;;5090874;28;20067;-70
2022/04/25 06:17:28;;;;;;;14.10;8.35;;;9.30;99.90;;;;;;5108981;28;20418;-70
2022/04/25 06:19:53;;;;;;;13.32;8.50;;;9.30;99.90;;;;;;5109872;28;20111;-70
2022/04/25 06:22:20;;;;;;;12.38;7.90;;;9.30;99.90;;;;;;5107969;28;20531;-70
2022/04/25 06:24:46;;;;;;;13.38;8.48;;;9.30;99.90;;;;;;5109332;28;20438;-70
2022/04/25 06:27:14;;;;;;;11.73;8.13;;;9.40;99.90;;;;;;5091355;28;20480;-70
2022/04/25 06:29:42;;;;;;;12.48;8.13;;;9.40;99.90;;;;;;5110023;28;20032;-70
2022/04/25 06:32:08;;;;;;;18.40;8.30;;;9.40;99.90;;;;;;5109770;28;20043;-71
2022/04/25 06:34:34;;;;;;;12.05;8.00;;;9.40;99.90;;;;;;5108872;28;20115;-70
2022/04/25 06:36:59;;;;;;;13.40;8.25;;;9.40;99.90;;;;;;5109313;28;20114;-70
2022/04/25 06:39:25;;;;;;;14.77;8.35;;;9.40;99.90;;;;;;5126699;27;20043;-70
2022/04/25 06:41:51;;;;;;;10.55;7.57;;;9.30;99.90;;;;;;5109235;28;20054;-69
2022/04/25 06:44:16;;;;;;;12.63;8.60;;;9.40;99.90;;;;;;5090683;28;20077;-70
2022/04/25 06:46:43;;;;;;;12.88;8.55;;;9.40;99.90;;;;;;5108650;28;20046;-71
2022/04/25 06:49:21;;;;;;;12.50;8.32;;;9.40;99.90;;;;;;5109582;28;20043;-71
2022/04/25 06:51:52;;;;;;;13.25;8.02;;;9.30;99.90;;;;;;5106113;28;20048;-70
2022/04/25 06:54:18;;;;;;;12.80;8.27;;;10.40;99.90;;;;;;5109073;28;20059;-71
2022/04/25 06:56:44;;;;;;;11.98;8.82;;;9.30;99.90;;;;;;5109062;28;20103;-71
2022/04/25 06:59:10;;;;;;;15.32;8.55;;;9.30;99.90;;;;;;5108959;28;20040;-71
2022/04/25 07:01:36;;;;;;;15.65;8.52;;;9.30;99.90;;;;;;5108901;28;20048;-72
2022/04/25 07:04:02;;;;;;;12.90;7.93;;;9.30;99.90;;;;;;5099990;28;20071;-71
2022/04/25 07:06:28;;;;;;;17.42;9.05;;;9.40;99.90;;;;;;5105748;28;20463;-71
2022/04/25 07:16:16;;;;;;;17.10;9.10;;;9.40;99.90;;;;;;5024023;28;20454;-71
2022/04/25 07:18:42;;;;;;;15.32;8.45;;;9.40;99.90;;;;;;5047924;28;20049;-71
2022/04/25 07:29:23;;;;;;;15.57;8.45;;;9.60;99.90;;;;;;5047399;28;20084;-72
2022/04/25 07:31:51;;;;;;;15.80;9.55;;;9.60;99.90;;;;;;5047089;28;20502;-71
2022/04/25 07:34:18;;;;;;;14.82;8.82;;;9.60;99.90;;;;;;5046839;28;20045;-71
2022/04/25 07:36:43;;;;;;;17.05;8.98;;;9.70;99.90;;;;;;5047268;28;20051;-71
2022/04/25 07:39:09;;;;;;;15.95;8.55;;;9.70;99.90;;;;;;5029071;28;20036;-70
2022/04/25 07:41:35;;;;;;;11.02;7.40;;;9.70;99.90;;;;;;5046481;28;20099;-70
2022/04/25 07:44:01;;;;;;;14.75;8.05;;;9.70;99.90;;;;;;5045319;28;20073;-70
2022/04/25 07:46:27;;;;;;;16.73;7.82;;;9.70;99.90;;;;;;5043744;28;20424;-71
2022/04/25 07:48:53;;;;;;;13.95;7.20;;;9.70;99.90;;;;;;5047161;28;20080;-70
2022/04/25 07:51:18;;;;;;;13.40;7.22;;;9.70;99.90;;;;;;5055369;28;20053;-72
2022/04/25 07:53:44;;;;;;;14.77;6.65;;;10.00;99.90;;;;;;5055909;28;20029;-71
2022/04/25 07:56:10;;;;;;;11.02;5.93;;;9.70;99.90;;;;;;5031877;28;20064;-71
2022/04/25 07:58:37;;;;;;;12.82;5.55;;;9.80;99.90;;;;;;5047472;28;20144;-70
2022/04/25 08:01:03;;;;;;;11.02;5.32;;;10.60;99.90;;;;;;5048237;28;20056;-71
2022/04/25 08:03:29;;;;;;;11.15;5.32;;;9.90;99.90;;;;;;5011733;28;23351;-71
2022/04/25 08:05:55;;;;;;;9.80;5.28;;;9.80;99.90;;;;;;5045748;28;20117;-72
2022/04/25 08:08:20;;;;;;;10.20;5.10;;;9.90;99.90;;;;;;5047752;28;20492;-73
2022/04/25 08:10:46;;;;;;;11.32;5.40;;;9.90;99.90;;;;;;5027862;28;20048;-73
2022/04/25 08:18:41;;;;;;;11.15;5.57;;;10.10;99.90;;;;;;5050008;28;20124;-73
2022/04/25 08:21:06;;;;;;;11.43;6.07;;;10.20;99.90;;;;;;5033047;28;20514;-74
2022/04/25 08:23:32;;;;;;;12.55;6.20;;;10.20;99.90;;;;;;5034973;28;20044;-73
2022/04/25 08:25:57;;;;;;;10.43;4.95;;;10.20;99.90;;;;;;5032918;28;20497;-73
2022/04/25 08:28:25;;;;;;;11.32;5.00;;;10.20;99.90;;;;;;5051503;28;20053;-74
2022/04/25 08:30:52;;;;;;;13.60;5.90;;;10.30;99.90;;;;;;5050346;28;20060;-74
2022/04/25 08:33:19;;;;;;;13.60;6.88;;;10.40;99.90;;;;;;5049659;28;20045;-74
2022/04/25 08:35:45;;;;;;;12.77;6.88;;;11.10;99.90;;;;;;5050184;28;20052;-74
2022/04/25 08:38:10;;;;;;;8.77;5.85;;;10.50;99.90;;;;;;5032905;28;20075;-74
2022/04/25 08:40:38;;;;;;;11.45;6.05;;;10.50;99.90;;;;;;5050839;28;20404;-74
2022/04/25 08:43:06;;;;;;;12.52;6.85;;;10.40;99.90;;;;;;5050418;28;20098;-74
2022/04/25 08:45:32;;;;;;;12.27;6.63;;;10.50;99.90;;;;;;5031541;28;20059;-73
2022/04/25 08:48:00;;;;;;;12.60;6.30;;;10.50;99.90;;;;;;5048682;28;20064;-71
2022/04/25 08:50:30;;;;;;;10.13;5.63;;;10.50;99.90;;;;;;5049762;28;20371;-72
2022/04/25 08:52:57;;;;;;;11.02;5.00;;;10.60;99.90;;;;;;5048227;28;20053;-71
2022/04/25 08:55:23;;;;;;;10.15;4.88;;;10.70;99.90;;;;;;5049680;28;20033;-72
2022/04/25 08:57:51;;;;;;;9.50;5.22;;;10.80;99.90;;;;;;5050968;28;20400;-71
2022/04/25 09:00:17;;;;;;;9.43;4.88;;;10.90;99.90;;;;;;5049294;28;20053;-73
2022/04/25 09:02:44;;;;;;;10.80;5.32;;;11.00;99.90;;;;;;5030875;28;20043;-72
2022/04/25 09:05:11;;;;;;;9.75;4.78;;;11.00;99.90;;;;;;5049874;28;20074;-71
2022/04/25 09:07:39;;;;;;;12.07;5.05;;;11.10;99.90;;;;;;5031023;28;20127;-71
2022/04/25 09:10:10;;;;;;;9.95;4.95;;;11.10;99.90;;;;;;5031031;28;20041;-72
2022/04/25 09:12:37;;;;;;;10.82;4.70;;;11.20;99.90;;;;;;5050095;28;20045;-72
2022/04/25 09:15:04;;;;;;;8.30;4.95;;;11.30;99.90;;;;;;5049901;28;20061;-72
2022/04/25 09:17:31;;;;;;;8.02;4.35;;;11.40;99.90;;;;;;5050760;28;20447;-73
2022/04/25 09:19:57;;;;;;;10.20;4.35;;;11.40;99.90;;;;;;5048360;28;20048;-73
2022/04/25 09:22:32;;;;;;;7.85;4.30;;;11.70;99.90;;;;;;5045126;28;20106;-73
2022/04/25 09:25:07;;;;;;;8.98;4.53;;;11.40;99.90;;;;;;5009396;28;20058;-73
2022/04/25 09:27:33;;;;;;;8.80;4.65;;;11.40;99.90;;;;;;5043260;28;20045;-73
2022/04/25 09:30:25;;;;;;;8.07;4.60;;;11.40;99.90;;;;;;5044855;28;20547;-72
2022/04/25 09:32:52;;;;;;;10.63;4.55;;;11.40;99.90;;;;;;5042295;28;20102;-71
2022/04/25 09:35:40;;;;;;;7.50;4.20;;;11.50;99.90;;;;;;5010276;28;20057;-71
2022/04/25 09:38:08;;;;;;;9.98;4.32;;;11.50;99.90;;;;;;5006291;28;20484;-72
2022/04/25 09:40:36;;;;;;;6.95;4.13;;;11.50;99.90;;;;;;5004838;28;20052;-72
2022/04/25 09:43:06;;;;;;;9.02;4.05;;;11.60;99.90;;;;;;5007995;28;20099;-72
2022/04/25 09:45:33;;;;;;;8.32;4.10;;;11.70;99.90;;;;;;5007971;28;20061;-72
2022/04/25 09:47:59;;;;;;;8.07;3.78;;;12.70;99.90;;;;;;5026094;28;20053;-72
2022/04/25 09:50:28;;;;;;;9.63;4.32;;;11.80;99.90;;;;;;5009027;28;20087;-72
2022/04/25 09:53:02;;;;;;;7.75;3.88;;;11.90;99.90;;;;;;5024920;28;20057;-72
2022/04/25 09:55:32;;;;;;;5.78;4.05;;;12.20;99.90;;;;;;4991089;28;20504;-71
2022/04/25 09:57:58;;;;;;;11.05;4.00;;;12.20;99.90;;;;;;5029217;28;20045;-71
2022/04/25 10:00:36;;;;;;;8.18;4.15;;;12.30;99.90;;;;;;5025603;28;20067;-72
2022/04/25 10:03:03;;;;;;;7.65;4.40;;;12.40;99.90;;;;;;5025999;28;20041;-71
2022/04/25 10:05:41;;;;;;;8.02;3.95;;;12.50;99.90;;;;;;5025269;28;20107;-72
2022/04/25 10:08:11;;;;;;;8.52;4.05;;;12.70;99.90;;;;;;5024480;28;20152;-71
2022/04/25 10:10:57;;;;;;;7.38;3.78;;;13.00;99.90;;;;;;5024612;28;20038;-71
2022/04/25 10:13:25;;;;;;;8.68;4.60;;;14.60;99.90;;;;;;5024172;28;20055;-72
2022/04/25 10:15:52;;;;;;;7.80;3.95;;;15.40;99.90;;;;;;5036865;28;20136;-73
2022/04/25 10:18:18;;;;;;;8.02;4.00;;;15.40;99.90;;;;;;5043903;28;20424;-72
2022/04/25 10:20:46;;;;;;;7.97;3.80;;;15.40;99.90;;;;;;5044834;28;20044;-72
2022/04/25 10:23:13;;;;;;;10.13;3.80;;;15.40;99.90;;;;;;5025588;28;20115;-71
2022/04/25 10:25:46;;;;;;;6.75;3.83;;;15.40;99.90;;;;;;5042776;28;20400;-71
2022/04/25 10:28:17;;;;;;;6.95;4.03;;;15.20;99.90;;;;;;5044068;28;20045;-71
2022/04/25 10:30:48;;;;;;;10.02;3.80;;;15.10;99.90;;;;;;5043408;28;20412;-71
2022/04/25 10:33:15;;;;;;;6.93;3.70;;;15.40;99.90;;;;;;5042754;28;20052;-72
2022/04/25 10:35:41;;;;;;;8.32;3.90;;;14.50;99.90;;;;;;5045082;28;20123;-71
2022/04/25 10:38:50;;;;;;;7.28;4.25;;;14.40;99.90;;;;;;5042377;28;20458;-71
2022/04/25 10:44:17;;;;;;;6.93;4.10;;;14.10;99.90;;;;;;5006595;28;20049;-72
2022/04/25 10:47:19;;;;;;;10.27;3.97;;;13.90;99.90;;;;;;5043870;28;20106;-72
2022/04/25 10:49:46;;;;;;;6.72;4.22;;;13.90;99.90;;;;;;4960514;28;20091;-71
2022/04/25 10:52:53;;;;;;;8.70;3.78;;;14.60;99.90;;;;;;5021632;28;20106;-71
2022/04/25 10:55:36;;;;;;;;;;;13.70;99.90;;;;;;5016043;28;20061;-72
2022/04/25 10:58:01;;;;;;;6.97;4.20;;;13.60;99.90;;;;;;5013088;28;19928;-71
2022/04/25 11:00:36;;;;;;;6.78;3.38;;;13.60;99.90;;;;;;5020813;28;20403;-72
2022/04/25 11:03:07;;;;;;;6.10;3.60;;;14.00;99.90;;;;;;5029168;28;20084;-73
2022/04/25 11:05:36;;;;;;;8.85;3.58;;;13.60;99.90;;;;;;5044448;28;20052;-71
2022/04/25 11:08:23;;;;;;;6.95;3.70;;;13.70;99.90;;;;;;5026346;28;20049;-71
2022/04/25 11:10:58;;;;;;;8.90;3.80;;;13.70;99.90;;;;;;5025773;28;20045;-71
2022/04/25 11:13:26;;;;;;;7.37;3.90;;;14.40;99.90;;;;;;5040628;28;20488;-72
2022/04/25 11:15:57;;;;;;;7.45;3.83;;;13.80;99.90;;;;;;5044224;28;20053;-71
2022/04/25 11:18:35;;;;;;;7.75;3.88;;;13.90;99.90;;;;;;5030588;28;20045;-72
2022/04/25 11:21:07;;;;;;;7.38;3.45;;;14.00;99.90;;;;;;5022947;28;20364;-71
2022/04/25 11:23:45;;;;;;;7.65;4.30;;;14.10;99.90;;;;;;5023706;28;20342;-71
2022/04/25 11:26:23;;;;;;;9.27;4.00;;;14.20;99.90;;;;;;5023771;28;20060;-71
2022/04/25 11:28:55;;;;;;;6.72;4.00;;;14.30;99.90;;;;;;5023641;28;20049;-71
2022/04/25 11:31:22;;;;;;;8.98;4.25;;;14.30;99.90;;;;;;5006100;28;20458;-72
2022/04/25 11:33:50;;;;;;;6.93;4.30;;;14.40;99.90;;;;;;4990719;28;20060;-71
2022/04/25 11:36:19;;;;;;;8.23;3.70;;;14.60;99.90;;;;;;5023589;28;20386;-71
2022/04/25 11:41:31;;;;;;;11.15;4.07;;;14.70;99.90;;;;;;5028324;28;20046;-71
2022/04/25 11:43:57;;;;;;;7.05;4.03;;;14.80;99.90;;;;;;5027276;28;20499;-72
2022/04/25 11:46:27;;;;;;;8.95;4.30;;;14.80;99.90;;;;;;5028158;28;20049;-72
2022/04/25 11:48:54;;;;;;;8.23;4.40;;;14.90;99.90;;;;;;5017626;28;20349;-73
2022/04/25 11:51:25;;;;;;;15.63;4.88;;;15.00;99.90;;;;;;5050111;28;20052;-73
2022/04/25 11:53:54;;;;;;;9.65;4.38;;;15.00;99.90;;;;;;5047327;28;20049;-73
2022/04/25 11:56:24;;;;;;;13.05;4.63;;;14.90;99.90;;;;;;5050084;28;20049;-72
2022/04/25 11:58:50;;;;;;;9.02;4.50;;;14.90;99.90;;;;;;5050993;28;20041;-73
2022/04/25 12:01:32;;;;;;;8.68;4.25;;;14.70;99.90;;;;;;5035607;28;20060;-73
2022/04/25 12:04:23;;;;;;;9.43;4.75;;;14.70;99.90;;;;;;5051046;28;20060;-73
2022/04/25 12:06:53;;;;;;;12.43;4.85;;;14.70;99.90;;;;;;4989617;28;20482;-73
2022/04/25 12:17:51;;;;;;;9.57;5.07;;;14.50;99.90;;;;;;5030015;28;20141;-72
2022/04/25 12:20:27;;;;;;;8.25;5.00;;;14.50;99.90;;;;;;5034077;28;20052;-72
2022/04/25 12:22:58;;;;;;;7.88;4.40;;;14.40;99.90;;;;;;5047156;28;20099;-70
2022/04/25 12:25:26;;;;;;;9.25;5.22;;;14.30;99.90;;;;;;5045501;28;20045;-70
2022/04/25 12:28:04;;;;;;;12.82;5.03;;;14.20;99.90;;;;;;5047156;28;20060;-70
2022/04/25 12:30:51;;;;;;;10.45;4.82;;;14.10;99.90;;;;;;5045910;28;20049;-70
2022/04/25 12:33:19;;;;;;;10.90;4.95;;;14.00;99.90;;;;;;5046779;28;20080;-70
2022/04/25 12:35:47;;;;;;;8.98;5.00;;;14.00;99.90;;;;;;5029710;28;20102;-69
2022/04/25 12:38:33;;;;;;;9.88;4.93;;;13.90;99.90;;;;;;5048304;28;20037;-69
2022/04/25 12:40:58;;;;;;;10.32;4.93;;;13.90;99.90;;;;;;5029839;28;20060;-70
2022/04/25 12:43:45;;;;;;;9.18;4.63;;;13.80;99.90;;;;;;5032662;28;20041;-69
2022/04/25 12:46:13;;;;;;;7.10;4.95;;;13.80;99.90;;;;;;5032424;28;20124;-70
2022/04/25 12:48:58;;;;;;;8.90;5.03;;;13.80;99.90;;;;;;5032870;28;20111;-69
2022/04/25 12:51:31;;;;;;;9.20;5.10;;;13.90;99.90;;;;;;5048845;28;20048;-69
2022/04/25 12:53:57;;;;;;;10.77;5.07;;;14.00;99.90;;;;;;5047755;28;20503;-69
2022/04/25 12:56:30;;;;;;;9.73;5.22;;;14.00;99.90;;;;;;5051462;28;20041;-69
2022/04/25 12:58:57;;;;;;;10.43;4.72;;;14.10;99.90;;;;;;5028251;28;20432;-69
2022/04/25 13:01:31;;;;;;;9.15;4.53;;;14.30;99.90;;;;;;5046404;28;20045;-70
2022/04/25 13:04:13;;;;;;;10.43;4.88;;;14.40;99.90;;;;;;5029329;28;20618;-69
2022/04/25 13:06:41;;;;;;;9.00;4.88;;;14.70;99.90;;;;;;5026879;28;20049;-69
2022/04/25 13:09:08;;;;;;;8.98;5.03;;;15.00;99.90;;;;;;5046023;28;20436;-69
2022/04/25 13:11:34;;;;;;;8.52;4.35;;;15.20;99.90;;;;;;5045405;28;20108;-69
2022/04/25 13:14:00;;;;;;;11.48;4.93;;;16.10;99.90;;;;;;5045383;28;20067;-69
2022/04/25 13:16:26;;;;;;;9.38;5.00;;;15.60;99.90;;;;;;5043861;28;20136;-83
2022/04/25 13:18:52;;;;;;;8.68;4.90;;;15.80;99.90;;;;;;5034634;28;20080;-73
2022/04/25 13:21:18;;;;;;;7.22;4.63;;;16.20;99.90;;;;;;5042912;28;20049;-73
2022/04/25 13:23:44;;;;;;;8.32;4.65;;;16.30;99.90;;;;;;5042164;28;20064;-73
2022/04/25 13:26:09;;;;;;;11.00;5.80;;;17.10;99.90;;;;;;5017480;28;20056;-72
2022/04/25 13:28:35;;;;;;;7.95;4.97;;;17.20;99.90;;;;;;5040313;28;20045;-73
2022/04/25 13:31:02;;;;;;;8.98;5.15;;;16.70;99.90;;;;;;5031351;28;20049;-73
2022/04/25 13:33:27;;;;;;;7.65;4.97;;;16.80;99.90;;;;;;5007896;28;20156;-73
2022/04/25 13:35:53;;;;;;;8.73;5.30;;;17.10;99.90;;;;;;5026418;28;20057;-73